createdAt,value
2023-05-25T00:01:54.935Z,20.18
2023-05-25T00:04:27.554Z,20.21
2023-05-25T00:06:55.670Z,20.22
2023-05-25T00:09:25.095Z,20.23
2023-05-25T00:11:53.205Z,20.19
2023-05-25T00:14:21.396Z,20.19
2023-05-25T00:16:49.371Z,20.19
2023-05-25T00:19:18.974Z,20.15
2023-05-25T00:21:48.933Z,20.19
2023-05-25T00:24:16.778Z,20.18
2023-05-25T00:26:44.547Z,20.19
2023-05-25T00:29:13.042Z,20.19
2023-05-25T00:31:40.972Z,20.22
2023-05-25T00:34:09.046Z,20.23
2023-05-25T00:36:36.940Z,20.24
2023-05-25T00:39:04.851Z,20.28
2023-05-25T00:41:33.741Z,20.29
2023-05-25T00:44:01.610Z,20.33
2023-05-25T00:46:30.399Z,20.35
2023-05-25T00:48:58.279Z,20.41
2023-05-25T00:51:27.778Z,20.48
2023-05-25T00:53:57.081Z,20.49
2023-05-25T00:56:29.475Z,20.57
2023-05-25T00:59:01.249Z,20.59
2023-05-25T01:01:33.765Z,20.61
2023-05-25T01:04:04.051Z,20.65
2023-05-25T01:06:34.402Z,20.76
2023-05-25T01:09:05.055Z,20.82
2023-05-25T01:11:35.416Z,20.84
2023-05-25T01:14:04.132Z,20.89
2023-05-25T01:16:32.428Z,20.96
2023-05-25T01:19:02.736Z,21.00
2023-05-25T01:21:46.221Z,21.20
2023-05-25T01:24:47.068Z,21.31
2023-05-25T01:27:21.953Z,21.34
2023-05-25T01:29:51.265Z,21.36
2023-05-25T01:32:20.375Z,21.43
2023-05-25T01:34:50.926Z,21.52
2023-05-25T01:37:19.931Z,21.60
2023-05-25T01:39:47.572Z,21.68
2023-05-25T01:42:15.184Z,21.80
2023-05-25T01:44:43.196Z,21.89
2023-05-25T01:47:29.537Z,22.10
2023-05-25T01:50:08.254Z,22.20
2023-05-25T01:52:41.121Z,22.16
2023-05-25T01:55:29.347Z,22.36
2023-05-25T01:57:59.418Z,22.38
2023-05-25T02:00:32.107Z,22.50
2023-05-25T02:03:01.910Z,22.62
2023-05-25T02:05:29.804Z,22.74
2023-05-25T02:07:57.535Z,22.81
2023-05-25T02:10:25.141Z,22.90
2023-05-25T02:12:52.809Z,23.03
2023-05-25T02:15:22.217Z,23.17
2023-05-25T02:17:50.993Z,23.26
2023-05-25T02:20:39.990Z,23.43
2023-05-25T02:23:07.757Z,23.59
2023-05-25T02:25:35.433Z,23.70
2023-05-25T02:28:03.256Z,23.83
2023-05-25T02:30:31.435Z,23.96
2023-05-25T02:32:59.486Z,24.09
2023-05-25T02:35:27.227Z,24.25
2023-05-25T02:37:54.899Z,24.41
2023-05-25T02:40:23.194Z,24.57
2023-05-25T02:42:50.841Z,24.71
2023-05-25T02:45:18.707Z,24.83
2023-05-25T02:47:46.317Z,24.97
2023-05-25T02:50:14.275Z,25.11
2023-05-25T02:52:51.517Z,25.27
2023-05-25T02:55:19.317Z,25.41
2023-05-25T02:57:48.101Z,25.55
2023-05-25T03:00:30.356Z,25.78
2023-05-25T03:02:58.093Z,26.21
2023-05-25T03:05:26.603Z,27.11
2023-05-25T03:07:54.593Z,27.99
2023-05-25T03:10:22.158Z,28.88
2023-05-25T03:12:49.881Z,29.58
2023-05-25T03:15:18.078Z,30.33
2023-05-25T03:17:46.195Z,30.97
2023-05-25T03:20:15.827Z,31.59
2023-05-25T03:22:47.330Z,32.21
2023-05-25T03:25:15.392Z,32.79
2023-05-25T03:27:43.100Z,33.36
2023-05-25T03:30:11.527Z,33.84
2023-05-25T03:32:39.418Z,34.33
2023-05-25T03:35:07.480Z,34.81
2023-05-25T03:37:35.893Z,35.23
2023-05-25T03:40:05.053Z,35.65
2023-05-25T03:42:33.790Z,36.11
2023-05-25T03:45:01.758Z,36.50
2023-05-25T03:47:33.703Z,36.88
2023-05-25T03:50:01.364Z,37.29
2023-05-25T03:52:29.129Z,37.64
2023-05-25T03:54:56.944Z,38.03
2023-05-25T03:57:25.023Z,38.30
2023-05-25T03:59:53.018Z,38.62
2023-05-25T04:02:20.702Z,38.96
2023-05-25T04:04:52.090Z,39.24
2023-05-25T04:07:20.804Z,39.50
2023-05-25T04:09:48.493Z,39.78
2023-05-25T04:12:17.117Z,40.07
2023-05-25T04:14:46.483Z,40.34
2023-05-25T04:17:14.156Z,40.64
2023-05-25T04:19:41.992Z,40.86
2023-05-25T04:22:10.989Z,41.04
2023-05-25T04:24:39.055Z,41.46
2023-05-25T04:27:07.499Z,41.81
2023-05-25T04:29:35.422Z,42.11
2023-05-25T04:32:10.957Z,42.41
2023-05-25T04:34:48.652Z,42.71
2023-05-25T04:37:30.975Z,42.75
2023-05-25T04:40:00.535Z,43.18
2023-05-25T04:42:32.547Z,43.30
2023-05-25T04:45:00.870Z,43.49
2023-05-25T04:47:31.470Z,43.76
2023-05-25T04:49:59.198Z,44.04
2023-05-25T04:52:26.747Z,44.35
2023-05-25T04:54:55.078Z,44.52
2023-05-25T04:57:22.713Z,44.81
2023-05-25T04:59:50.502Z,45.14
2023-05-25T05:02:19.046Z,45.36
2023-05-25T05:04:46.823Z,45.64
2023-05-25T05:07:14.622Z,45.77
2023-05-25T05:09:42.215Z,45.87
2023-05-25T05:12:12.063Z,45.95
2023-05-25T05:14:46.243Z,46.08
2023-05-25T05:17:13.881Z,46.13
2023-05-25T05:19:41.518Z,46.30
2023-05-25T05:22:10.581Z,46.45
2023-05-25T05:24:39.167Z,46.61
2023-05-25T05:27:06.882Z,46.74
2023-05-25T05:29:42.899Z,46.97
2023-05-25T05:32:10.753Z,47.15
2023-05-25T05:34:38.372Z,47.39
2023-05-25T05:37:11.586Z,47.54
2023-05-25T05:39:39.165Z,47.66
2023-05-25T05:42:08.556Z,47.77
2023-05-25T05:44:36.404Z,47.95
2023-05-25T05:47:04.062Z,48.07
2023-05-25T05:49:32.629Z,48.31
2023-05-25T05:52:01.870Z,48.45
2023-05-25T05:54:29.672Z,48.56
2023-05-25T05:57:01.824Z,48.63
2023-05-25T05:59:29.654Z,48.78
2023-05-25T06:01:57.276Z,48.95
2023-05-25T06:04:29.179Z,49.10
2023-05-25T06:06:59.268Z,49.32
2023-05-25T06:09:26.961Z,49.37
2023-05-25T06:11:56.930Z,49.35
2023-05-25T06:14:27.503Z,49.07
2023-05-25T06:16:59.099Z,48.91
2023-05-25T06:19:26.763Z,49.12
2023-05-25T06:21:54.422Z,49.36
2023-05-25T06:24:22.430Z,49.55
2023-05-25T06:26:50.865Z,49.65
2023-05-25T06:29:20.308Z,49.73
2023-05-25T06:31:48.005Z,49.75
2023-05-25T06:34:15.800Z,49.89
2023-05-25T06:36:43.606Z,49.99
2023-05-25T06:39:11.182Z,50.11
2023-05-25T06:41:40.789Z,49.95
2023-05-25T06:44:08.620Z,49.48
2023-05-25T06:46:47.164Z,49.00
2023-05-25T06:49:16.407Z,48.77
2023-05-25T06:51:44.019Z,48.86
2023-05-25T06:54:14.191Z,48.09
2023-05-25T06:56:42.106Z,47.85
2023-05-25T06:59:09.691Z,47.85
2023-05-25T07:01:37.849Z,48.13
2023-05-25T07:04:05.707Z,48.46
2023-05-25T07:06:33.435Z,48.60
2023-05-25T07:09:01.205Z,48.02
2023-05-25T07:11:29.156Z,47.29
2023-05-25T07:13:56.787Z,46.47
2023-05-25T07:16:25.931Z,45.80
2023-05-25T07:18:53.513Z,45.16
2023-05-25T07:21:21.252Z,44.89
2023-05-25T07:23:48.942Z,44.48
2023-05-25T07:26:17.047Z,44.49
2023-05-25T07:28:44.623Z,44.73
2023-05-25T07:31:12.394Z,44.72
2023-05-25T07:33:40.052Z,44.70
2023-05-25T07:36:07.959Z,44.69
2023-05-25T07:38:35.598Z,44.48
2023-05-25T07:41:03.264Z,44.32
2023-05-25T07:43:31.993Z,44.24
2023-05-25T07:46:02.276Z,44.05
2023-05-25T07:48:30.057Z,43.67
2023-05-25T07:50:58.038Z,43.32
2023-05-25T07:53:26.000Z,42.96
2023-05-25T07:55:53.741Z,42.75
2023-05-25T07:58:21.874Z,42.68
2023-05-25T08:00:50.495Z,42.63
2023-05-25T08:03:18.348Z,42.47
2023-05-25T08:05:46.244Z,42.28
2023-05-25T08:08:14.601Z,42.28
2023-05-25T08:10:42.446Z,42.22
2023-05-25T08:13:10.041Z,42.18
2023-05-25T08:15:37.824Z,42.07
2023-05-25T08:18:05.768Z,42.13
2023-05-25T08:20:33.705Z,42.01
2023-05-25T08:23:02.146Z,41.82
2023-05-25T08:25:29.732Z,41.72
2023-05-25T08:27:57.363Z,41.51
2023-05-25T08:30:24.986Z,41.22
2023-05-25T08:32:52.815Z,41.14
2023-05-25T08:35:20.362Z,40.97
2023-05-25T08:37:48.162Z,40.93
2023-05-25T08:40:17.267Z,40.84
2023-05-25T08:42:48.519Z,40.75
2023-05-25T08:45:30.370Z,40.68
2023-05-25T08:48:04.686Z,40.55
2023-05-25T08:50:34.220Z,40.40
2023-05-25T08:53:06.020Z,40.38
2023-05-25T08:55:37.848Z,40.16
2023-05-25T08:58:31.351Z,40.54
2023-05-25T09:01:04.488Z,39.90
2023-05-25T09:03:34.214Z,39.75
2023-05-25T09:06:02.303Z,39.61
2023-05-25T09:08:31.165Z,39.52
2023-05-25T09:10:59.121Z,39.45
2023-05-25T09:13:27.288Z,39.43
2023-05-25T09:15:56.039Z,39.41
2023-05-25T09:18:23.789Z,39.38
2023-05-25T09:20:51.906Z,39.29
2023-05-25T09:23:20.019Z,39.19
2023-05-25T09:25:50.951Z,39.12
2023-05-25T09:28:26.888Z,39.10
2023-05-25T09:30:56.579Z,38.86
2023-05-25T09:33:24.260Z,38.69
2023-05-25T09:35:52.458Z,38.61
2023-05-25T09:38:20.922Z,38.43
2023-05-25T09:40:49.251Z,38.26
2023-05-25T09:43:28.284Z,38.08
2023-05-25T09:46:00.582Z,37.97
2023-05-25T09:48:29.699Z,37.87
2023-05-25T09:50:57.816Z,37.72
2023-05-25T09:53:27.100Z,37.70
2023-05-25T09:55:55.381Z,37.44
2023-05-25T09:58:26.635Z,37.31
2023-05-25T10:00:55.725Z,37.26
2023-05-25T10:03:25.305Z,37.14
2023-05-25T10:05:55.149Z,37.04
2023-05-25T10:08:28.607Z,36.96
2023-05-25T10:10:57.087Z,36.79
2023-05-25T10:13:27.352Z,36.77
2023-05-25T10:15:55.677Z,36.65
2023-05-25T10:18:28.625Z,36.68
2023-05-25T10:21:05.270Z,36.77
2023-05-25T10:23:43.426Z,36.59
2023-05-25T10:26:18.828Z,36.42
2023-05-25T10:28:50.959Z,36.27
2023-05-25T10:31:18.953Z,36.76
2023-05-25T10:33:50.585Z,36.02
2023-05-25T10:36:21.174Z,35.88
2023-05-25T10:38:52.131Z,35.79
2023-05-25T10:41:21.118Z,35.58
2023-05-25T10:43:49.381Z,35.39
2023-05-25T10:46:17.601Z,35.29
2023-05-25T10:48:50.577Z,35.37
2023-05-25T10:51:21.424Z,35.27
2023-05-25T10:54:01.402Z,35.37
2023-05-25T10:56:29.071Z,34.94
2023-05-25T10:58:57.301Z,34.89
2023-05-25T11:01:25.739Z,34.90
2023-05-25T11:04:11.982Z,35.20
2023-05-25T11:06:44.401Z,34.74
2023-05-25T11:09:28.088Z,35.36
2023-05-25T11:12:02.617Z,34.87
2023-05-25T11:14:31.968Z,34.57
2023-05-25T11:17:15.756Z,34.60
2023-05-25T11:19:49.590Z,34.26
2023-05-25T11:22:21.734Z,34.05
2023-05-25T11:24:54.003Z,33.94
2023-05-25T11:27:27.497Z,33.97
2023-05-25T11:29:59.168Z,33.74
2023-05-25T11:32:28.763Z,33.53
2023-05-25T11:34:58.718Z,33.51
2023-05-25T11:37:31.937Z,33.47
2023-05-25T11:39:59.901Z,33.35
2023-05-25T11:42:28.138Z,33.32
2023-05-25T11:44:56.487Z,33.29
2023-05-25T11:47:25.614Z,33.29
2023-05-25T11:49:56.736Z,33.39
2023-05-25T11:52:24.687Z,33.25
2023-05-25T11:54:53.505Z,33.21
2023-05-25T11:57:26.828Z,33.19
2023-05-25T11:59:57.989Z,33.14
2023-05-25T12:02:25.707Z,32.96
2023-05-25T12:04:55.077Z,32.90
2023-05-25T12:07:23.179Z,32.80
2023-05-25T12:09:50.939Z,32.73
2023-05-25T12:12:20.083Z,32.71
2023-05-25T12:14:49.612Z,32.61
2023-05-25T12:17:18.905Z,32.56
2023-05-25T12:19:46.921Z,32.50
2023-05-25T12:22:15.320Z,32.51
2023-05-25T12:24:43.024Z,32.47
2023-05-25T12:27:23.081Z,32.73
2023-05-25T12:29:53.268Z,32.42
2023-05-25T12:32:20.978Z,32.41
2023-05-25T12:34:48.656Z,32.36
2023-05-25T12:37:21.176Z,32.45
2023-05-25T12:39:49.553Z,32.33
2023-05-25T12:42:17.899Z,32.22
2023-05-25T12:44:46.996Z,32.21
2023-05-25T12:47:28.240Z,32.37
2023-05-25T12:50:15.812Z,32.49
2023-05-25T12:52:45.539Z,32.18
2023-05-25T12:55:33.363Z,32.41
2023-05-25T12:58:05.978Z,32.12
2023-05-25T13:00:39.709Z,32.19
2023-05-25T13:03:08.423Z,31.96
2023-05-25T13:05:38.361Z,31.93
2023-05-25T13:08:07.282Z,31.86
2023-05-25T13:10:37.956Z,31.91
2023-05-25T13:13:05.569Z,31.71
2023-05-25T13:15:33.277Z,31.64
2023-05-25T13:18:01.038Z,31.62
2023-05-25T13:20:32.968Z,31.59
2023-05-25T13:23:00.760Z,31.56
2023-05-25T13:25:28.649Z,31.53
2023-05-25T13:27:58.251Z,31.49
2023-05-25T13:30:27.147Z,31.42
2023-05-25T13:32:56.096Z,31.39
2023-05-25T13:35:37.914Z,31.28
2023-05-25T13:38:06.154Z,31.32
2023-05-25T13:40:33.978Z,31.22
2023-05-25T13:43:01.886Z,31.17
2023-05-25T13:45:29.483Z,31.09
2023-05-25T13:47:57.330Z,31.03
2023-05-25T13:50:25.320Z,30.96
2023-05-25T13:52:53.284Z,30.93
2023-05-25T13:55:20.984Z,30.88
2023-05-25T13:57:48.681Z,30.86
2023-05-25T14:00:16.526Z,30.75
2023-05-25T14:02:44.523Z,30.74
2023-05-25T14:05:12.409Z,30.68
2023-05-25T14:07:41.486Z,30.62
2023-05-25T14:10:10.255Z,30.60
2023-05-25T14:12:38.182Z,30.56
2023-05-25T14:15:06.902Z,30.51
2023-05-25T14:17:34.785Z,30.47
2023-05-25T14:20:05.890Z,30.40
2023-05-25T14:22:34.080Z,30.35
2023-05-25T14:25:01.922Z,30.27
2023-05-25T14:27:31.981Z,30.24
2023-05-25T14:29:59.613Z,30.17
2023-05-25T14:32:27.293Z,30.12
2023-05-25T14:34:55.041Z,30.08
2023-05-25T14:37:22.628Z,30.05
2023-05-25T14:39:50.262Z,29.99
2023-05-25T14:42:17.999Z,29.93
2023-05-25T14:44:45.723Z,29.89
2023-05-25T14:47:13.300Z,29.81
2023-05-25T14:49:41.188Z,29.76
2023-05-25T14:52:08.797Z,29.69
2023-05-25T14:54:36.532Z,29.64
2023-05-25T14:57:04.222Z,29.56
2023-05-25T14:59:31.867Z,29.53
2023-05-25T15:01:59.531Z,29.49
2023-05-25T15:04:30.366Z,29.47
2023-05-25T15:06:58.916Z,29.44
2023-05-25T15:09:26.615Z,29.36
2023-05-25T15:11:54.272Z,29.33
2023-05-25T15:14:21.985Z,29.28
2023-05-25T15:16:49.665Z,29.18
2023-05-25T15:19:17.904Z,29.20
2023-05-25T15:21:45.884Z,29.14
2023-05-25T15:24:16.949Z,29.10
2023-05-25T15:26:44.678Z,29.08
2023-05-25T15:29:12.387Z,29.05
2023-05-25T15:31:40.022Z,29.10
2023-05-25T15:34:07.642Z,29.04
2023-05-25T15:36:35.319Z,29.07
2023-05-25T15:39:03.235Z,28.91
2023-05-25T15:41:30.841Z,28.87
2023-05-25T15:44:01.240Z,28.91
2023-05-25T15:46:29.402Z,28.89
2023-05-25T15:48:57.059Z,28.87
2023-05-25T15:51:24.602Z,28.78
2023-05-25T15:53:52.719Z,28.67
2023-05-25T15:56:20.605Z,28.45
2023-05-25T15:58:49.716Z,28.33
2023-05-25T16:01:17.358Z,28.26
2023-05-25T16:03:45.291Z,28.23
2023-05-25T16:06:12.992Z,28.18
2023-05-25T16:08:40.585Z,28.03
2023-05-25T16:11:08.460Z,28.04
2023-05-25T16:13:36.199Z,27.99
2023-05-25T16:16:03.992Z,27.75
2023-05-25T16:18:31.616Z,27.67
2023-05-25T16:20:59.284Z,27.56
2023-05-25T16:23:27.088Z,27.48
2023-05-25T16:25:54.829Z,27.30
2023-05-25T16:28:22.635Z,27.26
2023-05-25T16:30:50.307Z,27.19
2023-05-25T16:33:18.051Z,27.32
2023-05-25T16:35:45.993Z,27.33
2023-05-25T16:38:13.857Z,27.37
2023-05-25T16:40:41.489Z,27.27
2023-05-25T16:43:09.046Z,27.27
2023-05-25T16:45:36.764Z,27.22
2023-05-25T16:48:04.679Z,27.22
2023-05-25T16:50:32.537Z,27.21
2023-05-25T16:53:00.210Z,27.14
2023-05-25T16:55:27.986Z,27.13
2023-05-25T16:57:55.670Z,27.09
2023-05-25T17:00:23.924Z,27.06
2023-05-25T17:02:51.606Z,27.02
2023-05-25T17:05:19.465Z,26.98
2023-05-25T17:07:47.521Z,26.88
2023-05-25T17:10:15.092Z,26.79
2023-05-25T17:12:42.952Z,26.70
2023-05-25T17:15:14.116Z,26.68
2023-05-25T17:17:42.086Z,26.58
2023-05-25T17:20:11.250Z,26.53
2023-05-25T17:22:39.010Z,26.55
2023-05-25T17:25:07.672Z,26.38
2023-05-25T17:27:35.712Z,26.28
2023-05-25T17:30:05.056Z,26.20
2023-05-25T17:32:33.530Z,26.21
2023-05-25T17:35:01.197Z,26.11
2023-05-25T17:37:32.656Z,25.97
2023-05-25T17:40:00.719Z,25.91
2023-05-25T17:42:28.448Z,25.89
2023-05-25T17:44:56.170Z,25.84
2023-05-25T17:47:24.408Z,25.92
2023-05-25T17:49:51.998Z,25.88
2023-05-25T17:52:19.694Z,25.90
2023-05-25T17:54:47.338Z,25.82
2023-05-25T17:57:15.007Z,25.77
2023-05-25T17:59:45.431Z,25.75
2023-05-25T18:02:13.596Z,25.75
2023-05-25T18:04:41.592Z,25.83
2023-05-25T18:07:09.200Z,25.83
2023-05-25T18:09:36.862Z,25.91
2023-05-25T18:12:04.638Z,25.83
2023-05-25T18:14:35.704Z,25.71
2023-05-25T18:17:04.046Z,25.74
2023-05-25T18:19:31.942Z,25.77
2023-05-25T18:21:59.560Z,25.80
2023-05-25T18:24:28.253Z,25.75
2023-05-25T18:26:58.336Z,25.69
2023-05-25T18:29:26.173Z,25.68
2023-05-25T18:31:53.681Z,25.60
2023-05-25T18:34:21.474Z,25.39
2023-05-25T18:36:49.154Z,25.26
2023-05-25T18:39:17.000Z,25.18
2023-05-25T18:41:44.610Z,25.23
2023-05-25T18:44:12.420Z,25.14
2023-05-25T18:46:42.096Z,25.11
2023-05-25T18:49:10.118Z,25.12
2023-05-25T18:51:37.802Z,25.08
2023-05-25T18:54:05.440Z,25.05
2023-05-25T18:56:33.109Z,24.97
2023-05-25T18:59:00.885Z,24.98
2023-05-25T19:01:28.531Z,24.96
2023-05-25T19:03:58.593Z,24.96
2023-05-25T19:06:27.576Z,24.96
2023-05-25T19:08:55.637Z,24.93
2023-05-25T19:11:23.282Z,24.94
2023-05-25T19:13:50.973Z,24.79
2023-05-25T19:16:18.707Z,24.73
2023-05-25T19:18:47.507Z,24.77
2023-05-25T19:21:15.086Z,24.70
2023-05-25T19:23:42.737Z,24.70
2023-05-25T19:26:10.517Z,24.65
2023-05-25T19:28:38.119Z,24.63
2023-05-25T19:31:05.997Z,24.51
2023-05-25T19:33:33.670Z,24.52
2023-05-25T19:36:01.463Z,24.41
2023-05-25T19:38:40.335Z,24.45
2023-05-25T19:41:09.221Z,24.44
2023-05-25T19:43:37.665Z,24.51
2023-05-25T19:46:05.535Z,24.42
2023-05-25T19:48:33.382Z,24.30
2023-05-25T19:51:01.403Z,24.27
2023-05-25T19:53:30.475Z,24.25
2023-05-25T19:55:58.661Z,24.22
2023-05-25T19:58:26.325Z,24.18
2023-05-25T20:00:54.247Z,24.11
2023-05-25T20:03:22.116Z,24.11
2023-05-25T20:05:49.791Z,24.01
2023-05-25T20:08:17.390Z,23.87
2023-05-25T20:10:45.438Z,23.95
2023-05-25T20:13:13.161Z,23.89
2023-05-25T20:15:41.552Z,23.90
2023-05-25T20:18:09.211Z,23.84
2023-05-25T20:20:36.966Z,23.76
2023-05-25T20:23:04.649Z,23.70
2023-05-25T20:25:32.365Z,23.70
2023-05-25T20:27:59.876Z,23.65
2023-05-25T20:30:27.459Z,23.66
2023-05-25T20:32:55.176Z,23.63
2023-05-25T20:35:22.867Z,23.54
2023-05-25T20:37:50.569Z,23.44
2023-05-25T20:40:18.346Z,23.35
2023-05-25T20:42:46.048Z,23.36
2023-05-25T20:45:13.614Z,23.34
2023-05-25T20:47:41.410Z,23.27
2023-05-25T20:50:09.364Z,23.21
2023-05-25T20:52:36.947Z,23.25
2023-05-25T20:55:04.999Z,23.18
2023-05-25T20:57:32.956Z,23.16
2023-05-25T21:00:00.744Z,23.15
2023-05-25T21:02:28.982Z,23.10
2023-05-25T21:04:56.660Z,23.06
2023-05-25T21:07:24.293Z,23.07
2023-05-25T21:09:51.911Z,23.02
2023-05-25T21:12:19.699Z,22.95
2023-05-25T21:14:47.384Z,22.90
2023-05-25T21:17:15.288Z,22.89
2023-05-25T21:19:43.032Z,22.96
2023-05-25T21:22:11.699Z,22.96
2023-05-25T21:24:39.775Z,22.90
2023-05-25T21:27:07.600Z,22.89
2023-05-25T21:29:35.178Z,22.93
2023-05-25T21:32:02.939Z,23.00
2023-05-25T21:34:30.577Z,22.89
2023-05-25T21:36:58.480Z,22.86
2023-05-25T21:39:25.992Z,22.86
2023-05-25T21:41:53.974Z,22.82
2023-05-25T21:44:21.827Z,22.80
2023-05-25T21:46:49.449Z,22.74
2023-05-25T21:49:17.158Z,22.70
2023-05-25T21:51:44.863Z,22.78
2023-05-25T21:54:12.382Z,22.75
2023-05-25T21:56:39.975Z,22.75
2023-05-25T21:59:07.703Z,22.66
2023-05-25T22:01:35.388Z,22.73
2023-05-25T22:04:02.993Z,22.66
2023-05-25T22:06:30.865Z,22.70
2023-05-25T22:08:59.567Z,22.69
2023-05-25T22:11:27.354Z,22.69
2023-05-25T22:13:54.990Z,22.69
2023-05-25T22:16:22.574Z,22.65
2023-05-25T22:18:50.111Z,22.73
2023-05-25T22:21:17.685Z,22.68
2023-05-25T22:23:45.235Z,22.68
2023-05-25T22:26:12.872Z,22.61
2023-05-25T22:28:40.490Z,22.63
2023-05-25T22:31:08.215Z,22.57
2023-05-25T22:33:35.901Z,22.53
2023-05-25T22:36:03.525Z,22.57
2023-05-25T22:38:31.120Z,22.47
2023-05-25T22:40:58.781Z,22.53
2023-05-25T22:43:44.635Z,22.52
2023-05-25T22:46:12.244Z,22.49
2023-05-25T22:48:40.620Z,22.41
2023-05-25T22:51:08.279Z,22.45
2023-05-25T22:53:35.974Z,22.36
2023-05-25T22:56:03.624Z,22.34
2023-05-25T22:58:31.413Z,22.25
2023-05-25T23:00:59.014Z,22.27
2023-05-25T23:03:26.684Z,22.27
2023-05-25T23:05:54.439Z,22.27
2023-05-25T23:08:22.103Z,22.27
2023-05-25T23:10:49.705Z,22.25
2023-05-25T23:13:17.607Z,22.20
2023-05-25T23:15:45.954Z,22.16
2023-05-25T23:18:13.603Z,22.07
2023-05-25T23:20:41.253Z,22.05
2023-05-25T23:23:08.973Z,21.98
2023-05-25T23:25:37.022Z,21.98
2023-05-25T23:28:04.615Z,21.93
2023-05-25T23:30:32.207Z,21.88
2023-05-25T23:33:00.406Z,21.82
2023-05-25T23:35:28.888Z,21.85
2023-05-25T23:37:57.894Z,21.79
2023-05-25T23:40:25.655Z,21.76
2023-05-25T23:42:54.014Z,21.76
2023-05-25T23:45:21.718Z,21.72
2023-05-25T23:47:49.430Z,21.69
2023-05-25T23:50:17.287Z,21.69
2023-05-25T23:52:46.359Z,21.72
2023-05-25T23:55:14.542Z,21.69
2023-05-25T23:57:42.318Z,21.65
